createdAt,value
2022-11-02T00:00:14.847Z,8.39
2022-11-02T00:01:14.895Z,8.61
2022-11-02T00:02:14.944Z,8.61
2022-11-02T00:03:14.856Z,8.61
2022-11-02T00:04:14.863Z,8.94
2022-11-02T00:05:14.856Z,8.94
2022-11-02T00:06:14.856Z,8.94
2022-11-02T00:07:14.855Z,8.78
2022-11-02T00:08:14.864Z,8.78
2022-11-02T00:09:14.865Z,8.78
2022-11-02T00:10:14.858Z,8.61
2022-11-02T00:11:14.851Z,8.78
2022-11-02T00:12:14.861Z,8.61
2022-11-02T00:13:14.868Z,8.94
2022-11-02T00:14:14.869Z,9.22
2022-11-02T00:15:14.871Z,8.94
2022-11-02T00:16:14.865Z,8.94
2022-11-02T00:17:14.862Z,8.94
2022-11-02T00:18:14.890Z,8.78
2022-11-02T00:19:14.859Z,8.94
2022-11-02T00:20:14.869Z,8.78
2022-11-02T00:21:14.868Z,8.94
2022-11-02T00:22:14.867Z,8.94
2022-11-02T00:23:14.882Z,8.94
2022-11-02T00:24:14.880Z,9.06
2022-11-02T00:25:14.869Z,9.06
2022-11-02T00:26:14.892Z,9.06
2022-11-02T00:27:14.881Z,8.78
2022-11-02T00:28:14.889Z,8.78
2022-11-02T00:29:14.875Z,8.39
2022-11-02T00:30:14.873Z,8.39
2022-11-02T00:31:14.871Z,8.61
2022-11-02T00:32:14.879Z,8.5
2022-11-02T00:33:14.883Z,8.78
2022-11-02T00:34:14.904Z,8.78
2022-11-02T00:35:14.890Z,8.5
2022-11-02T00:36:14.883Z,8.5
2022-11-02T00:37:14.890Z,8.39
2022-11-02T00:38:14.900Z,8.39
2022-11-02T00:39:14.892Z,7.94
2022-11-02T00:40:14.898Z,8.11
2022-11-02T00:41:14.890Z,7.94
2022-11-02T00:42:14.901Z,7.94
2022-11-02T00:43:14.883Z,7.67
2022-11-02T00:44:14.894Z,7.67
2022-11-02T00:45:14.894Z,7.22
2022-11-02T00:46:14.880Z,7.5
2022-11-02T00:47:14.901Z,7.5
2022-11-02T00:48:14.898Z,7.5
2022-11-02T00:49:14.901Z,7.5
2022-11-02T00:50:14.930Z,7.11
2022-11-02T00:51:14.890Z,7.5
2022-11-02T00:52:14.896Z,7.5
2022-11-02T00:53:14.902Z,7.5
2022-11-02T00:54:14.897Z,7.5
2022-11-02T00:55:14.909Z,7.67
2022-11-02T00:56:14.900Z,7.5
2022-11-02T00:57:14.903Z,7.39
2022-11-02T00:58:14.913Z,7.39
2022-11-02T00:59:14.896Z,7.5
2022-11-02T01:00:14.911Z,7.5
2022-11-02T01:01:15.019Z,7.78
2022-11-02T01:02:15.020Z,7.94
2022-11-02T01:03:14.916Z,7.94
2022-11-02T01:04:14.910Z,7.94
2022-11-02T01:05:14.900Z,7.94
2022-11-02T01:06:14.932Z,8.28
2022-11-02T01:07:14.912Z,8.28
2022-11-02T01:08:14.908Z,7.94
2022-11-02T01:09:14.904Z,7.94
2022-11-02T01:10:14.908Z,7.78
2022-11-02T01:11:14.919Z,7.5
2022-11-02T01:12:14.928Z,7.39
2022-11-02T01:13:14.917Z,7.11
2022-11-02T01:14:14.911Z,6.78
2022-11-02T01:15:14.915Z,6.78
2022-11-02T01:16:14.920Z,6.94
2022-11-02T01:17:14.915Z,6.94
2022-11-02T01:18:14.910Z,7.11
2022-11-02T01:19:14.912Z,6.94
2022-11-02T01:20:14.923Z,6.94
2022-11-02T01:21:14.917Z,7.22
2022-11-02T01:22:14.943Z,7.22
2022-11-02T01:23:14.917Z,7.39
2022-11-02T01:24:14.915Z,7.11
2022-11-02T01:25:14.917Z,7.5
2022-11-02T01:26:14.913Z,7.39
2022-11-02T01:27:14.917Z,7.78
2022-11-02T01:28:14.921Z,7.67
2022-11-02T01:29:14.934Z,7.5
2022-11-02T01:30:14.918Z,7.67
2022-11-02T01:31:14.926Z,7.94
2022-11-02T01:32:14.929Z,7.67
2022-11-02T01:33:14.924Z,7.78
2022-11-02T01:34:14.930Z,7.67
2022-11-02T01:35:14.924Z,7.5
2022-11-02T01:36:14.982Z,7.11
2022-11-02T01:37:14.928Z,7.39
2022-11-02T01:38:14.953Z,7.11
2022-11-02T01:39:14.922Z,7.11
2022-11-02T01:40:14.935Z,7.39
2022-11-02T01:41:14.920Z,7.39
2022-11-02T01:42:14.929Z,6.94
2022-11-02T01:43:14.922Z,6.78
2022-11-02T01:44:14.925Z,6.78
2022-11-02T01:45:14.929Z,7.11
2022-11-02T01:46:14.927Z,6.94
2022-11-02T01:47:14.927Z,6.94
2022-11-02T01:48:14.933Z,7.11
2022-11-02T01:49:14.923Z,6.67
2022-11-02T01:50:14.920Z,7.11
2022-11-02T01:51:14.920Z,7.11
2022-11-02T01:52:14.925Z,7.5
2022-11-02T01:53:14.927Z,7.22
2022-11-02T01:54:14.953Z,7.39
2022-11-02T01:55:14.935Z,7.22
2022-11-02T01:56:14.999Z,7.11
2022-11-02T01:57:14.943Z,6.78
2022-11-02T01:58:14.936Z,6.94
2022-11-02T01:59:14.939Z,7.11
2022-11-02T02:00:14.951Z,6.94
2022-11-02T02:01:14.992Z,7.11
2022-11-02T02:02:15.072Z,7.22
2022-11-02T02:03:14.949Z,7.11
2022-11-02T02:04:14.952Z,6.67
2022-11-02T02:05:14.949Z,6.67
2022-11-02T02:06:14.956Z,6.67
2022-11-02T02:07:14.953Z,6.67
2022-11-02T02:08:14.952Z,6.5
2022-11-02T02:09:14.953Z,6.67
2022-11-02T02:10:14.979Z,6.67
2022-11-02T02:11:14.960Z,6.67
2022-11-02T02:12:14.952Z,6.67
2022-11-02T02:13:14.954Z,6.94
2022-11-02T02:14:14.954Z,6.78
2022-11-02T02:15:14.960Z,7.11
2022-11-02T02:16:14.964Z,7.11
2022-11-02T02:17:14.965Z,7.11
2022-11-02T02:18:14.961Z,6.78
2022-11-02T02:19:14.970Z,7.11
2022-11-02T02:20:14.985Z,7.11
2022-11-02T02:21:14.973Z,6.78
2022-11-02T02:22:14.983Z,6.94
2022-11-02T02:23:14.976Z,7.11
2022-11-02T02:24:14.982Z,6.94
2022-11-02T02:25:14.991Z,7.11
2022-11-02T02:26:15.008Z,7.11
2022-11-02T02:27:14.983Z,6.94
2022-11-02T02:28:14.989Z,6.94
2022-11-02T02:29:14.987Z,7.11
2022-11-02T02:30:14.993Z,6.78
2022-11-02T02:31:14.988Z,6.94
2022-11-02T02:32:15.009Z,6.94
2022-11-02T02:33:14.998Z,7.11
2022-11-02T02:34:15.003Z,6.94
2022-11-02T02:35:14.997Z,6.22
2022-11-02T02:36:15.001Z,6.67
2022-11-02T02:37:15.004Z,6.67
2022-11-02T02:38:15.006Z,6.06
2022-11-02T02:39:14.989Z,6.22
2022-11-02T02:40:15.010Z,6.39
2022-11-02T02:41:15.021Z,6.5
2022-11-02T02:42:15.061Z,6.67
2022-11-02T02:43:15.008Z,6.22
2022-11-02T02:44:15.013Z,6.5
2022-11-02T02:45:15.019Z,6.67
2022-11-02T02:46:15.019Z,6.67
2022-11-02T02:47:15.011Z,6.67
2022-11-02T02:48:15.013Z,6.5
2022-11-02T02:49:15.011Z,6.5
2022-11-02T02:50:15.015Z,6.39
2022-11-02T02:51:15.015Z,6.5
2022-11-02T02:52:15.022Z,6.5
2022-11-02T02:53:15.012Z,6.22
2022-11-02T02:54:15.025Z,6.22
2022-11-02T02:55:15.008Z,6.22
2022-11-02T02:56:15.014Z,5.94
2022-11-02T02:57:15.020Z,5.94
2022-11-02T02:58:15.045Z,5.78
2022-11-02T02:59:15.012Z,5.78
2022-11-02T03:00:15.024Z,6.22
2022-11-02T03:01:15.142Z,6.06
2022-11-02T03:02:15.115Z,6.06
2022-11-02T03:03:15.031Z,5.78
2022-11-02T03:04:15.032Z,5.78
2022-11-02T03:05:15.035Z,5.94
2022-11-02T03:06:15.028Z,5.78
2022-11-02T03:07:15.033Z,5.78
2022-11-02T03:08:15.045Z,5.78
2022-11-02T03:09:15.039Z,5.67
2022-11-02T03:10:15.041Z,5.67
2022-11-02T03:11:15.039Z,5.94
2022-11-02T03:12:15.034Z,5.94
2022-11-02T03:13:15.034Z,5.78
2022-11-02T03:14:15.070Z,6.06
2022-11-02T03:15:15.037Z,6.22
2022-11-02T03:16:15.040Z,6.39
2022-11-02T03:17:15.032Z,6.22
2022-11-02T03:18:15.052Z,6.39
2022-11-02T03:19:15.048Z,6.5
2022-11-02T03:20:15.040Z,6.5
2022-11-02T03:21:15.044Z,6.39
2022-11-02T03:22:15.056Z,6.39
2022-11-02T03:23:15.045Z,6.5
2022-11-02T03:24:15.038Z,6.22
2022-11-02T03:25:15.063Z,5.94
2022-11-02T03:26:15.058Z,6.06
2022-11-02T03:27:15.048Z,5.94
2022-11-02T03:28:15.056Z,6.22
2022-11-02T03:29:15.071Z,6.22
2022-11-02T03:30:15.082Z,6.22
2022-11-02T03:31:15.050Z,5.78
2022-11-02T03:32:15.059Z,6.22
2022-11-02T03:33:15.058Z,5.78
2022-11-02T03:34:15.061Z,5.78
2022-11-02T03:35:15.072Z,5.78
2022-11-02T03:36:15.061Z,5.39
2022-11-02T03:37:15.075Z,5.39
2022-11-02T03:38:15.073Z,5.78
2022-11-02T03:39:15.070Z,5.56
2022-11-02T03:40:15.070Z,4.94
2022-11-02T03:41:15.075Z,4.94
2022-11-02T03:42:15.077Z,5.11
2022-11-02T03:43:15.070Z,5.39
2022-11-02T03:44:15.085Z,5.56
2022-11-02T03:45:15.071Z,5.39
2022-11-02T03:46:15.105Z,5.39
2022-11-02T03:47:15.082Z,5.39
2022-11-02T03:48:15.074Z,5.39
2022-11-02T03:49:15.077Z,5.11
2022-11-02T03:50:15.086Z,5.39
2022-11-02T03:51:15.074Z,5.39
2022-11-02T03:52:15.074Z,4.67
2022-11-02T03:53:15.073Z,4.67
2022-11-02T03:54:15.093Z,5.39
2022-11-02T03:55:15.087Z,5.11
2022-11-02T03:56:15.085Z,5.11
2022-11-02T03:57:15.093Z,5.39
2022-11-02T03:58:15.086Z,5.39
2022-11-02T03:59:15.089Z,5.39
2022-11-02T04:00:15.096Z,5.22
2022-11-02T04:01:15.117Z,5.22
2022-11-02T04:02:15.196Z,5.39
2022-11-02T04:03:15.095Z,5.39
2022-11-02T04:04:15.094Z,5.22
2022-11-02T04:05:15.102Z,5.39
2022-11-02T04:06:15.104Z,5.39
2022-11-02T04:07:15.097Z,5.39
2022-11-02T04:08:15.095Z,5.22
2022-11-02T04:09:15.107Z,5.22
2022-11-02T04:10:15.102Z,5.22
2022-11-02T04:11:15.106Z,5.39
2022-11-02T04:12:15.118Z,5.22
2022-11-02T04:13:15.109Z,4.94
2022-11-02T04:14:15.109Z,4.94
2022-11-02T04:15:15.114Z,4.94
2022-11-02T04:16:15.111Z,4.83
2022-11-02T04:17:15.110Z,4.83
2022-11-02T04:18:15.126Z,4.83
2022-11-02T04:19:15.116Z,4.94
2022-11-02T04:20:15.122Z,4.83
2022-11-02T04:21:15.115Z,5.22
2022-11-02T04:22:15.133Z,4.83
2022-11-02T04:23:15.120Z,4.94
2022-11-02T04:24:15.121Z,4.83
2022-11-02T04:25:15.112Z,4.67
2022-11-02T04:26:15.125Z,4.94
2022-11-02T04:27:18.219Z,4.94
2022-11-02T04:28:15.119Z,4.94
2022-11-02T04:29:15.130Z,4.94
2022-11-02T04:30:15.134Z,4.67
2022-11-02T04:31:15.129Z,4.94
2022-11-02T04:32:15.123Z,4.94
2022-11-02T04:33:15.123Z,4.83
2022-11-02T04:34:15.157Z,4.94
2022-11-02T04:35:15.135Z,4.5
2022-11-02T04:36:15.149Z,4.83
2022-11-02T04:37:15.138Z,4.94
2022-11-02T04:38:15.132Z,4.83
2022-11-02T04:39:15.133Z,4.94
2022-11-02T04:40:15.141Z,4.94
2022-11-02T04:41:15.146Z,4.83
2022-11-02T04:42:15.152Z,4.5
2022-11-02T04:43:15.151Z,4.22
2022-11-02T04:44:15.154Z,4.67
2022-11-02T04:45:15.152Z,4.83
2022-11-02T04:46:15.154Z,5.11
2022-11-02T04:47:15.156Z,5.39
2022-11-02T04:48:15.150Z,5.22
2022-11-02T04:49:15.145Z,5.22
2022-11-02T04:50:15.174Z,5.11
2022-11-02T04:51:15.162Z,5.39
2022-11-02T04:52:15.167Z,4.94
2022-11-02T04:53:15.163Z,5.11
2022-11-02T04:54:15.166Z,5.39
2022-11-02T04:55:15.162Z,5.22
2022-11-02T04:56:15.163Z,5.11
2022-11-02T04:57:15.168Z,5.39
2022-11-02T04:58:15.174Z,5.22
2022-11-02T04:59:15.171Z,5.11
2022-11-02T05:00:15.163Z,4.94
2022-11-02T05:01:15.394Z,5.22
2022-11-02T05:02:15.243Z,4.67
2022-11-02T05:03:15.169Z,4.83
2022-11-02T05:04:15.171Z,4.5
2022-11-02T05:05:15.177Z,4.83
2022-11-02T05:06:15.217Z,4.94
2022-11-02T05:07:15.183Z,4.94
2022-11-02T05:08:15.167Z,5.22
2022-11-02T05:09:15.175Z,5.39
2022-11-02T05:10:15.186Z,4.94
2022-11-02T05:11:15.181Z,4.83
2022-11-02T05:12:15.178Z,4.83
2022-11-02T05:13:15.183Z,4.83
2022-11-02T05:14:15.198Z,4.94
2022-11-02T05:15:15.187Z,5.11
2022-11-02T05:16:15.189Z,5.22
2022-11-02T05:17:15.180Z,4.94
2022-11-02T05:18:18.760Z,4.94
2022-11-02T05:19:15.186Z,4.94
2022-11-02T05:20:15.195Z,4.5
2022-11-02T05:21:15.189Z,4.67
2022-11-02T05:22:15.214Z,4.5
2022-11-02T05:23:15.184Z,4.5
2022-11-02T05:24:15.192Z,4.67
2022-11-02T05:25:15.189Z,4.5
2022-11-02T05:26:15.197Z,4.39
2022-11-02T05:27:15.186Z,4.5
2022-11-02T05:28:15.186Z,4.39
2022-11-02T05:29:15.195Z,4.5
2022-11-02T05:30:15.192Z,3.94
2022-11-02T05:31:15.216Z,4.22
2022-11-02T05:32:15.196Z,4.22
2022-11-02T05:33:15.196Z,4.39
2022-11-02T05:34:15.205Z,4.22
2022-11-02T05:35:15.202Z,4.5
2022-11-02T05:36:15.216Z,4.11
2022-11-02T05:37:15.205Z,4.5
2022-11-02T05:38:15.222Z,4.5
2022-11-02T05:39:15.213Z,4.39
2022-11-02T05:40:15.202Z,4.11
2022-11-02T05:41:15.204Z,4.5
2022-11-02T05:42:15.209Z,4.83
2022-11-02T05:43:15.207Z,4.94
2022-11-02T05:44:15.200Z,4.94
2022-11-02T05:45:16.538Z,4.94
2022-11-02T05:46:15.207Z,4.94
2022-11-02T05:47:15.212Z,4.67
2022-11-02T05:48:15.216Z,4.67
2022-11-02T05:49:15.216Z,4.83
2022-11-02T05:50:15.210Z,4.67
2022-11-02T05:51:15.215Z,4.67
2022-11-02T05:52:15.220Z,4.67
2022-11-02T05:53:15.220Z,4.67
2022-11-02T05:54:15.236Z,4.67
2022-11-02T05:55:15.220Z,4.5
2022-11-02T05:56:16.586Z,4.39
2022-11-02T05:57:15.220Z,4.5
2022-11-02T05:58:15.220Z,4.5
2022-11-02T05:59:15.221Z,4.67
2022-11-02T06:00:15.227Z,4.5
2022-11-02T06:01:15.268Z,4.5
2022-11-02T06:02:15.227Z,4.67
2022-11-02T06:03:15.234Z,4.5
2022-11-02T06:04:15.278Z,4.39
2022-11-02T06:05:15.288Z,4.39
2022-11-02T06:06:15.227Z,4.5
2022-11-02T06:07:15.220Z,4.67
2022-11-02T06:08:15.232Z,4.67
2022-11-02T06:09:15.231Z,4.5
2022-11-02T06:10:15.254Z,4.5
2022-11-02T06:11:15.244Z,4.67
2022-11-02T06:12:15.231Z,4.94
2022-11-02T06:13:15.234Z,4.94
2022-11-02T06:14:15.245Z,4.94
2022-11-02T06:15:15.237Z,5.11
2022-11-02T06:16:18.679Z,4.94
2022-11-02T06:17:15.238Z,4.94
2022-11-02T06:18:15.246Z,4.83
2022-11-02T06:20:15.246Z,4.94
2022-11-02T06:21:15.242Z,4.94
2022-11-02T06:22:15.239Z,4.94
2022-11-02T06:23:15.248Z,4.94
2022-11-02T06:24:15.239Z,5.11
2022-11-02T06:25:15.245Z,5.22
2022-11-02T06:26:15.268Z,5.22
2022-11-02T06:27:15.248Z,5.39
2022-11-02T06:28:15.242Z,5.11
2022-11-02T06:29:15.243Z,4.94
2022-11-02T06:30:15.240Z,5.39
2022-11-02T06:31:15.244Z,5.11
2022-11-02T06:32:15.239Z,5.39
2022-11-02T06:33:15.245Z,5.22
2022-11-02T06:34:15.241Z,5.39
2022-11-02T06:35:15.243Z,5.22
2022-11-02T06:36:15.238Z,5.11
2022-11-02T06:37:15.234Z,5.11
2022-11-02T06:38:15.240Z,5.11
2022-11-02T06:39:15.245Z,4.94
2022-11-02T06:40:15.243Z,5.39
2022-11-02T06:41:15.246Z,4.94
2022-11-02T06:42:15.259Z,5.39
2022-11-02T06:43:16.844Z,5.33
2022-11-02T06:44:15.243Z,5.78
2022-11-02T06:45:15.246Z,5.67
2022-11-02T06:46:15.241Z,5.78
2022-11-02T06:47:15.237Z,5.78
2022-11-02T06:48:15.240Z,5.78
2022-11-02T06:49:15.250Z,5.61
2022-11-02T06:50:15.249Z,6.44
2022-11-02T06:51:15.249Z,6
2022-11-02T06:52:15.249Z,6.06
2022-11-02T06:53:15.242Z,6.11
2022-11-02T06:54:15.249Z,6.22
2022-11-02T06:55:15.256Z,6.39
2022-11-02T06:56:15.253Z,6.28
2022-11-02T06:57:15.246Z,6.56
2022-11-02T06:58:15.286Z,6.78
2022-11-02T06:59:15.263Z,6.56
2022-11-02T07:00:16.510Z,6.72
2022-11-02T07:01:15.436Z,6.56
2022-11-02T07:02:15.262Z,6.56
2022-11-02T07:03:15.260Z,6.28
2022-11-02T07:04:15.261Z,6.56
2022-11-02T07:05:15.252Z,6.56
2022-11-02T07:06:15.259Z,6.72
2022-11-02T07:07:15.264Z,6.83
2022-11-02T07:08:15.268Z,6.39
2022-11-02T07:09:15.270Z,6.72
2022-11-02T07:10:15.266Z,6.28
2022-11-02T07:11:15.265Z,6.11
2022-11-02T07:12:18.122Z,6.78
2022-11-02T07:13:15.270Z,6.94
2022-11-02T07:14:15.290Z,6.28
2022-11-02T07:15:15.263Z,6.56
2022-11-02T07:16:15.287Z,6.83
2022-11-02T07:17:15.271Z,7.17
2022-11-02T07:18:15.279Z,7
2022-11-02T07:19:15.270Z,7.06
2022-11-02T07:20:15.273Z,7
2022-11-02T07:21:15.337Z,6.83
2022-11-02T07:22:15.283Z,7.28
2022-11-02T07:23:15.281Z,7
2022-11-02T07:24:15.283Z,6.83
2022-11-02T07:25:15.285Z,6.72
2022-11-02T07:26:15.291Z,7
2022-11-02T07:27:15.298Z,7.28
2022-11-02T07:28:15.282Z,7.17
2022-11-02T07:29:15.296Z,7.39
2022-11-02T07:30:15.320Z,7
2022-11-02T07:31:15.292Z,7.17
2022-11-02T07:32:15.293Z,7.44
2022-11-02T07:33:15.301Z,7.67
2022-11-02T07:34:17.064Z,7.28
2022-11-02T07:35:15.300Z,7.39
2022-11-02T07:36:15.293Z,7.72
2022-11-02T07:37:15.288Z,7.5
2022-11-02T07:38:15.298Z,7.67
2022-11-02T07:39:15.303Z,7.61
2022-11-02T07:40:15.297Z,7.78
2022-11-02T07:41:15.289Z,7.44
2022-11-02T07:42:15.306Z,7.72
2022-11-02T07:43:15.308Z,7.72
2022-11-02T07:44:15.306Z,8.17
2022-11-02T07:45:15.302Z,8
2022-11-02T07:46:15.365Z,8
2022-11-02T07:47:15.301Z,7.89
2022-11-02T07:48:15.304Z,8.44
2022-11-02T07:49:20.310Z,8.11
2022-11-02T07:50:15.306Z,7.67
2022-11-02T07:51:15.310Z,7.67
2022-11-02T07:52:15.312Z,7.89
2022-11-02T07:53:15.316Z,7.89
2022-11-02T07:54:15.325Z,8.11
2022-11-02T07:55:15.305Z,7.89
2022-11-02T07:56:15.301Z,7.94
2022-11-02T07:57:15.321Z,8.39
2022-11-02T07:58:15.315Z,7.61
2022-11-02T07:59:15.323Z,8.11
2022-11-02T08:00:15.319Z,8.39
2022-11-02T08:01:15.398Z,8.39
2022-11-02T08:02:15.341Z,7.94
2022-11-02T08:03:15.432Z,8.11
2022-11-02T08:04:15.359Z,7.94
2022-11-02T08:05:15.323Z,8.39
2022-11-02T08:06:15.317Z,8.28
2022-11-02T08:07:15.328Z,8.39
2022-11-02T08:08:15.322Z,8.5
2022-11-02T08:09:15.318Z,8.39
2022-11-02T08:10:15.322Z,8.78
2022-11-02T08:11:15.323Z,8.61
2022-11-02T08:12:15.329Z,8.61
2022-11-02T08:13:15.331Z,8.61
2022-11-02T08:14:15.332Z,8.78
2022-11-02T08:15:15.318Z,8.78
2022-11-02T08:16:15.334Z,8.78
2022-11-02T08:17:15.331Z,8.61
2022-11-02T08:18:15.364Z,8.94
2022-11-02T08:19:15.331Z,8.61
2022-11-02T08:20:15.335Z,8.78
2022-11-02T08:21:15.344Z,9.06
2022-11-02T08:22:15.348Z,9.06
2022-11-02T08:23:15.343Z,8.78
2022-11-02T08:24:15.344Z,9.22
2022-11-02T08:26:15.334Z,9.06
2022-11-02T08:27:15.345Z,9.22
2022-11-02T08:28:15.345Z,9.22
2022-11-02T08:29:15.351Z,9.22
2022-11-02T08:30:15.350Z,9.06
2022-11-02T08:31:15.347Z,9.22
2022-11-02T08:32:15.351Z,9.5
2022-11-02T08:33:15.346Z,9.67
2022-11-02T08:34:15.374Z,9.22
2022-11-02T08:35:15.345Z,9.5
2022-11-02T08:36:15.353Z,9.06
2022-11-02T08:37:15.373Z,9.22
2022-11-02T08:38:15.384Z,9.67
2022-11-02T08:39:18.787Z,9.67
2022-11-02T08:40:15.365Z,9.67
2022-11-02T08:41:15.362Z,9.78
2022-11-02T08:42:15.358Z,9.78
2022-11-02T08:43:15.371Z,10.11
2022-11-02T08:44:15.355Z,10.22
2022-11-02T08:45:15.366Z,10.11
2022-11-02T08:46:16.715Z,9.78
2022-11-02T08:47:15.364Z,10.22
2022-11-02T08:48:15.361Z,10.22
2022-11-02T08:49:15.363Z,10.39
2022-11-02T08:50:15.395Z,10.56
2022-11-02T08:51:15.371Z,10.56
2022-11-02T08:52:15.375Z,10.11
2022-11-02T08:53:15.364Z,9.67
2022-11-02T08:54:15.366Z,9.22
2022-11-02T08:55:15.377Z,9.5
2022-11-02T08:56:15.376Z,9.5
2022-11-02T08:57:15.374Z,9.67
2022-11-02T08:58:15.377Z,9.67
2022-11-02T08:59:15.376Z,9.67
2022-11-02T09:00:15.380Z,9.5
2022-11-02T09:01:15.454Z,9.78
2022-11-02T09:02:15.486Z,9.94
2022-11-02T09:03:15.379Z,9.94
2022-11-02T09:04:15.368Z,9.94
2022-11-02T09:05:15.380Z,9.94
2022-11-02T09:06:15.399Z,9.78
2022-11-02T09:07:15.380Z,10.22
2022-11-02T09:08:15.433Z,10.11
2022-11-02T09:09:15.383Z,10.11
2022-11-02T09:10:15.391Z,10.11
2022-11-02T09:11:15.386Z,9.5
2022-11-02T09:12:15.375Z,9.67
2022-11-02T09:13:15.383Z,9.67
2022-11-02T09:14:15.454Z,9.78
2022-11-02T09:15:15.374Z,10.11
2022-11-02T09:16:15.385Z,9.94
2022-11-02T09:17:15.392Z,10.11
2022-11-02T09:18:15.386Z,10.11
2022-11-02T09:19:15.393Z,9.78
2022-11-02T09:20:15.395Z,10.11
2022-11-02T09:21:15.395Z,9.94
2022-11-02T09:22:15.405Z,10.22
2022-11-02T09:23:15.389Z,10.22
2022-11-02T09:24:15.385Z,10.11
2022-11-02T09:25:15.402Z,10.11
2022-11-02T09:26:15.396Z,10.11
2022-11-02T09:27:15.403Z,10.39
2022-11-02T09:28:15.533Z,10.56
2022-11-02T09:29:15.460Z,10.22
2022-11-02T09:30:15.446Z,10.56
2022-11-02T09:31:15.407Z,10.39
2022-11-02T09:32:15.404Z,10.56
2022-11-02T09:33:15.423Z,10.67
2022-11-02T09:34:15.415Z,10.67
2022-11-02T09:35:15.406Z,10.83
2022-11-02T09:36:15.405Z,10.83
2022-11-02T09:37:15.416Z,11
2022-11-02T09:38:15.430Z,11.44
2022-11-02T09:39:15.408Z,11.44
2022-11-02T09:40:15.440Z,11.11
2022-11-02T09:41:15.422Z,11.44
2022-11-02T09:42:15.412Z,11.83
2022-11-02T09:43:15.413Z,11.83
2022-11-02T09:44:15.447Z,11.44
2022-11-02T09:45:15.424Z,11.72
2022-11-02T09:46:15.429Z,11.72
2022-11-02T09:47:56.225Z,12.11
2022-11-02T09:48:17.865Z,11.83
2022-11-02T09:49:15.431Z,12.72
2022-11-02T09:50:15.490Z,13.06
2022-11-02T09:51:15.424Z,12.89
2022-11-02T09:52:15.424Z,12.44
2022-11-02T09:53:15.429Z,12.28
2022-11-02T09:54:17.567Z,12.11
2022-11-02T09:55:15.460Z,12.11
2022-11-02T09:56:15.451Z,12.28
2022-11-02T09:57:15.439Z,12.28
2022-11-02T09:58:15.440Z,11.94
2022-11-02T09:59:15.466Z,12.11
2022-11-02T10:00:15.431Z,12.11
2022-11-02T10:01:15.467Z,12.56
2022-11-02T10:02:15.520Z,12.72
2022-11-02T10:03:15.481Z,12.44
2022-11-02T10:04:15.446Z,12.28
2022-11-02T10:05:15.459Z,12.44
2022-11-02T10:06:15.438Z,12.44
2022-11-02T10:07:15.469Z,12.72
2022-11-02T10:08:15.473Z,12.72
2022-11-02T10:09:15.431Z,12.72
2022-11-02T10:10:15.552Z,12.89
2022-11-02T10:11:15.471Z,13.06
2022-11-02T10:12:15.477Z,13.17
2022-11-02T10:13:15.473Z,13.17
2022-11-02T10:14:15.476Z,13.06
2022-11-02T10:15:15.494Z,13.17
2022-11-02T10:16:15.438Z,13.06
2022-11-02T10:17:15.523Z,13.17
2022-11-02T10:18:15.472Z,13.17
2022-11-02T10:19:15.480Z,12.89
2022-11-02T10:20:15.450Z,13.06
2022-11-02T10:21:15.525Z,13.33
2022-11-02T10:22:15.449Z,13.33
2022-11-02T10:23:15.449Z,13.67
2022-11-02T10:24:15.517Z,13.67
2022-11-02T10:25:15.491Z,13.94
2022-11-02T10:26:15.492Z,13.94
2022-11-02T10:27:15.516Z,13.78
2022-11-02T10:28:15.603Z,14.06
2022-11-02T10:29:15.502Z,14.28
2022-11-02T10:30:15.480Z,14.56
2022-11-02T10:31:15.848Z,14.39
2022-11-02T10:32:15.479Z,14.39
2022-11-02T10:33:15.477Z,14.39
2022-11-02T10:34:15.483Z,14.67
2022-11-02T10:35:33.772Z,15
2022-11-02T10:36:18.386Z,15
2022-11-02T10:37:15.491Z,14.89
2022-11-02T10:38:15.975Z,15.17
2022-11-02T10:39:15.476Z,15
2022-11-02T10:40:15.537Z,14.67
2022-11-02T10:41:15.476Z,14.28
2022-11-02T10:42:15.536Z,14.28
2022-11-02T10:43:15.539Z,13.67
2022-11-02T10:44:15.489Z,12.72
2022-11-02T10:45:15.477Z,13.33
2022-11-02T10:46:15.501Z,13.67
2022-11-02T10:47:15.469Z,14.56
2022-11-02T10:48:15.533Z,14.67
2022-11-02T10:49:15.528Z,14.89
2022-11-02T10:50:15.496Z,14.67
2022-11-02T10:51:15.509Z,14.39
2022-11-02T10:52:15.506Z,14.67
2022-11-02T10:53:39.285Z,14.67
2022-11-02T10:54:17.005Z,15
2022-11-02T10:55:15.476Z,14.28
2022-11-02T10:56:15.514Z,13.67
2022-11-02T10:57:15.495Z,13.67
2022-11-02T10:58:15.506Z,13.78
2022-11-02T10:59:15.503Z,13.67
2022-11-02T11:00:15.496Z,13.94
2022-11-02T11:01:15.653Z,14.06
2022-11-02T11:02:15.483Z,14.56
2022-11-02T11:03:15.498Z,15
2022-11-02T11:04:15.515Z,15.72
2022-11-02T11:05:15.487Z,16.83
2022-11-02T11:06:15.486Z,16.83
2022-11-02T11:07:15.488Z,17.17
2022-11-02T11:08:15.466Z,16.67
2022-11-02T11:09:15.499Z,16.83
2022-11-02T11:10:15.483Z,15.39
2022-11-02T11:11:15.505Z,15.72
2022-11-02T11:12:15.483Z,14.89
2022-11-02T11:16:16.870Z,15.56
2022-11-02T11:20:15.487Z,15.17
2022-11-02T11:21:15.478Z,15
2022-11-02T11:22:15.498Z,15.56
2022-11-02T11:23:15.553Z,16.5
2022-11-02T11:24:15.515Z,16.22
2022-11-02T11:25:15.493Z,15.39
2022-11-02T11:26:15.489Z,15.28
2022-11-02T11:27:15.509Z,15
2022-11-02T11:28:15.483Z,15
2022-11-02T11:29:15.487Z,15.17
2022-11-02T11:30:20.666Z,15.06
2022-11-02T11:31:15.483Z,14.89
2022-11-02T11:32:15.486Z,15.61
2022-11-02T11:33:15.487Z,16.5
2022-11-02T11:34:15.486Z,16.06
2022-11-02T11:35:15.482Z,15.89
2022-11-02T11:36:15.563Z,15.78
2022-11-02T11:37:15.488Z,15.44
2022-11-02T11:38:15.490Z,15.44
2022-11-02T11:39:15.506Z,15.89
2022-11-02T11:40:15.490Z,16.39
2022-11-02T11:41:15.486Z,17.5
2022-11-02T11:42:15.486Z,17.33
2022-11-02T11:43:15.490Z,16.39
2022-11-02T11:44:15.489Z,16.89
2022-11-02T11:45:15.493Z,16.72
2022-11-02T11:46:15.511Z,16.56
2022-11-02T11:47:15.493Z,16.39
2022-11-02T11:48:15.487Z,16.72
2022-11-02T11:49:15.493Z,16.06
2022-11-02T11:50:25.695Z,16.89
2022-11-02T11:51:15.493Z,17.17
2022-11-02T11:52:15.497Z,16.72
2022-11-02T11:53:15.496Z,16.56
2022-11-02T11:54:15.501Z,16.22
2022-11-02T11:55:15.498Z,16.56
2022-11-02T11:56:15.491Z,16.06
2022-11-02T11:57:15.497Z,15.28
2022-11-02T11:58:15.497Z,15.06
2022-11-02T11:59:15.499Z,15.17
2022-11-02T12:00:15.541Z,15.17
2022-11-02T12:01:15.582Z,15.28
2022-11-02T12:02:15.650Z,15.06
2022-11-02T12:03:15.556Z,14.89
2022-11-02T12:04:15.502Z,14.89
2022-11-02T12:05:15.502Z,15.06
2022-11-02T12:06:15.501Z,15.17
2022-11-02T12:07:15.506Z,14.78
2022-11-02T12:08:15.497Z,15.06
2022-11-02T12:09:15.504Z,15.61
2022-11-02T12:10:15.600Z,15.28
2022-11-02T12:11:18.874Z,15.61
2022-11-02T12:12:15.509Z,15.28
2022-11-02T12:13:15.514Z,15.17
2022-11-02T12:14:15.508Z,14.61
2022-11-02T12:15:15.502Z,14.78
2022-11-02T12:16:15.517Z,14.61
2022-11-02T12:17:15.515Z,14.89
2022-11-02T12:18:15.528Z,15.06
2022-11-02T12:19:15.514Z,15.17
2022-11-02T12:20:15.526Z,15.06
2022-11-02T12:21:15.515Z,15.17
2022-11-02T12:22:15.520Z,14.89
2022-11-02T12:23:15.525Z,14.89
2022-11-02T12:24:15.501Z,14.89
2022-11-02T12:25:15.517Z,14.78
2022-11-02T12:26:15.509Z,14.78
2022-11-02T12:27:15.514Z,14.61
2022-11-02T12:28:15.508Z,14.61
2022-11-02T12:29:15.520Z,14.78
2022-11-02T12:30:15.526Z,14.78
2022-11-02T12:31:15.531Z,14.61
2022-11-02T12:32:15.517Z,14.78
2022-11-02T12:33:15.520Z,14.61
2022-11-02T12:34:15.545Z,14.28
2022-11-02T12:35:28.217Z,14.28
2022-11-02T12:36:15.521Z,14.28
2022-11-02T12:37:35.671Z,14.28
2022-11-02T12:38:15.524Z,14.11
2022-11-02T12:39:15.519Z,14.61
2022-11-02T12:40:15.699Z,14.44
2022-11-02T12:41:15.531Z,14.78
2022-11-02T12:42:15.529Z,14.28
2022-11-02T12:43:15.523Z,14.61
2022-11-02T12:44:15.529Z,14.28
2022-11-02T12:45:15.529Z,14.28
2022-11-02T12:46:15.533Z,14.28
2022-11-02T12:47:15.532Z,14.28
2022-11-02T12:48:15.536Z,14.11
2022-11-02T12:49:15.536Z,14.44
2022-11-02T12:50:15.561Z,14.28
2022-11-02T12:51:15.542Z,14.28
2022-11-02T12:52:15.537Z,14.28
2022-11-02T12:53:15.530Z,14.28
2022-11-02T12:54:15.534Z,14.11
2022-11-02T12:55:17.158Z,14.28
2022-11-02T12:56:15.537Z,14.11
2022-11-02T12:57:15.540Z,14.11
2022-11-02T12:58:15.537Z,14.28
2022-11-02T12:59:15.530Z,14.44
2022-11-02T13:00:15.534Z,14.28
2022-11-02T13:01:15.676Z,14.28
2022-11-02T13:02:15.543Z,14.11
2022-11-02T13:03:15.545Z,14
2022-11-02T13:04:15.535Z,14.11
2022-11-02T13:05:15.549Z,14.11
2022-11-02T13:06:15.569Z,14.11
2022-11-02T13:07:15.544Z,13.83
2022-11-02T13:08:15.539Z,14
2022-11-02T13:09:15.557Z,14.11
2022-11-02T13:10:15.554Z,13.83
2022-11-02T13:11:15.542Z,14
2022-11-02T13:12:15.549Z,14
2022-11-02T13:13:15.553Z,14.11
2022-11-02T13:14:15.889Z,13.67
2022-11-02T13:15:15.565Z,13.56
2022-11-02T13:16:15.559Z,14
2022-11-02T13:17:15.560Z,14
2022-11-02T13:18:15.548Z,14
2022-11-02T13:19:15.553Z,13.83
2022-11-02T13:20:15.561Z,14
2022-11-02T13:21:15.563Z,14.11
2022-11-02T13:22:15.573Z,13.67